Terminal Aerodrome Forecast
Issued by NWS

Home | Current Version | Previous Version | Text Only | Print | Product List | Glossary On
Versions: 1 2 3 4 5 6 7 8 9 10 11 12 13
576
FTUS46 KLOX 171127
TAFSBA
TAF
KSBA 171127Z 1712/1812 04006KT P6SM BKN200
     FM171700 16006KT P6SM BKN150
     FM172200 23008KT P6SM BKN150
     FM180300 VRB03KT P6SM BKN150=

USA.gov is the U.S. government's official web portal to all federal, state and local government web resources and services.